Latest Weather Observations for Ulladulla

IDN60801

Issued at 8:33 am EST Monday 29 August 2016 (issued every 30 minutes, with the page automatically refreshed every 10 minutes)

About weather observations | Map of weather stations | Latest weather observations for NSW | Other Formats
Station Details ID: 069138 Name: ULLADULLA AWS Lat: -35.36 Lon: 150.48 Height: 35.7 m
Data from the previous 72 hours. | See also: Recent months at Ulladulla
Date/Time
EST
Temp
°C
App
Temp
°C
Dew
Point
°C
Rel
Hum
%
Delta-T
°C
Wind Press
QNH
hPa
Press
MSL
hPa
Rain since
9am
mm
Dir  Spd
km/h
Gust
km/h
Spd
kts
Gust
kts
29/08:30am 16.0 13.7 5.6 50 5.0 SW 7 13 4 7 1026.4 1026.4 0.0
29/08:00am 15.2 12.9 4.9 50 4.8 W 6 9 3 5 1026.3 1026.3 0.0
29/07:30am 13.4 10.9 3.8 52 4.3 W 6 7 3 4 1026.0 1026.0 0.0
29/07:00am 11.2 8.5 3.5 59 3.4 W 7 9 4 5 1025.3 1025.4 0.0
29/06:30am 10.3 7.5 3.1 61 3.1 W 7 11 4 6 1024.9 1025.0 0.0
29/06:00am 10.3 8.4 3.1 61 3.1 S 2 6 1 3 1024.5 1024.6 0.0
29/05:30am 9.9 7.3 3.0 62 3.0 W 6 9 3 5 1024.4 1024.5 0.0
29/05:00am 9.8 7.9 2.9 62 2.9 WNW 2 6 1 3 1024.0 1024.1 0.0
29/04:30am 10.6 8.3 2.9 59 3.3 WNW 4 7 2 4 1023.5 1023.5 0.0
29/04:00am 11.2 8.3 2.5 55 3.7 W 7 11 4 6 1023.2 1023.2 0.0
29/03:30am 11.7 8.8 2.7 54 3.9 W 7 9 4 5 1022.8 1022.8 0.0
29/03:00am 12.1 9.2 2.6 52 4.1 W 7 11 4 6 1022.6 1022.6 0.0
29/02:30am 12.6 9.8 3.0 52 4.2 WNW 7 13 4 7 1022.9 1022.9 0.0
29/02:00am 12.5 9.7 2.9 52 4.2 W 7 11 4 6 1022.8 1022.8 0.0
29/01:30am 12.7 9.9 3.1 52 4.3 W 7 11 4 6 1022.8 1022.8 0.0
29/01:00am 12.4 9.6 3.4 54 4.0 WNW 7 9 4 5 1022.7 1022.7 0.0
29/12:30am 13.0 10.5 3.7 53 4.2 WNW 6 11 3 6 1022.2 1022.2 0.0
29/12:00am 11.8 9.4 4.5 61 3.3 WNW 6 9 3 5 1022.3 1022.3 0.0
 
Date/Time
EST
Temp
°C
App
Temp
°C
Dew
Point
°C
Rel
Hum
%
Delta-T
°C
Wind Press
QNH
hPa
Press
MSL
hPa
Rain since
9am
mm
Dir  Spd
km/h
Gust
km/h
Spd
kts
Gust
kts
28/11:30pm 9.8 8.6 4.8 71 2.2 CALM 0 0 0 0 1022.2 1022.2 0.0
28/11:00pm 10.4 8.5 4.8 68 2.5 N 4 6 2 3 1022.1 1022.1 0.0
28/10:30pm 10.4 8.5 6.5 77 1.8 N 6 7 3 4 1022.1 1022.1 0.0
28/10:00pm 10.4 8.8 6.4 76 1.9 N 4 6 2 3 1022.2 1022.2 0.0
28/09:30pm 10.7 9.0 5.7 71 2.3 N 4 6 2 3 1022.2 1022.2 0.0
28/09:00pm 11.1 9.2 5.0 66 2.8 N 4 6 2 3 1022.1 1022.1 0.0
28/08:30pm 12.3 10.2 5.9 65 3.0 N 6 9 3 5 1022.0 1022.0 0.0
28/08:00pm 12.3 10.2 5.7 64 3.1 N 6 7 3 4 1021.8 1021.8 0.0
28/07:30pm 13.3 11.2 5.7 60 3.6 NNW 6 7 3 4 1021.7 1021.7 0.0
28/07:00pm 14.5 12.4 6.8 60 3.7 N 7 13 4 7 1021.7 1021.7 0.0
28/06:30pm 15.2 13.5 7.7 61 3.7 NNW 6 11 3 6 1021.4 1021.4 0.0
28/06:00pm 15.4 13.3 5.9 53 4.6 N 6 11 3 6 1021.0 1021.0 0.0
28/05:30pm 15.8 13.6 6.0 52 4.7 NNE 7 13 4 7 1020.6 1020.6 0.0
28/05:00pm 16.0 13.9 5.6 50 5.0 N 6 9 3 5 1020.4 1020.4 0.0
28/04:30pm 16.7 14.5 5.3 47 5.5 NNE 6 9 3 5 1020.2 1020.2 0.0
28/04:00pm 17.3 15.2 3.9 41 6.3 SE 4 7 2 4 1020.1 1020.1 0.0
28/03:30pm 17.4 14.9 4.0 41 6.3 SE 6 7 3 4 1020.0 1020.0 0.0
28/03:00pm 17.8 15.4 4.4 41 6.3 SE 6 9 3 5 1020.0 1020.0 0.0
28/02:30pm 18.0 15.2 3.1 37 6.9 SSE 7 13 4 7 1020.0 1020.0 0.0
28/02:00pm 18.2 15.0 2.9 36 7.0 SSW 9 17 5 9 1020.0 1020.0 0.0
28/01:30pm 18.5 14.8 2.4 34 7.4 WSW 11 20 6 11 1020.1 1020.1 0.0
28/01:00pm 18.1 14.3 2.0 34 7.3 W 11 22 6 12 1020.4 1020.4 0.0
28/12:30pm 17.8 13.7 2.2 35 7.1 W 13 26 7 14 1020.8 1020.8 0.0
28/12:00pm 17.6 13.5 2.4 36 6.9 WNW 13 22 7 12 1021.0 1021.0 0.0
28/11:30am 18.2 14.7 3.3 37 6.9 WNW 11 24 6 13 1021.2 1021.2 0.0
28/11:00am 17.7 14.0 2.5 36 6.9 WNW 11 24 6 13 1021.6 1021.6 0.0
28/10:30am 17.2 13.5 2.4 37 6.7 WNW 11 24 6 13 1021.7 1021.7 0.0
28/10:00am 16.7 12.8 1.2 35 6.8 WNW 11 19 6 10 1021.8 1021.8 0.0
28/09:30am 16.5 13.3 0.6 34 6.9 WNW 7 17 4 9 1021.8 1021.8 0.0
28/09:00am 15.9 12.3 0.9 36 6.5 W 9 15 5 8 1021.8 1021.8 0.0
28/08:30am 14.9 11.7 0.7 38 6.1 W 7 13 4 7 1021.7 1021.7 0.0
28/08:00am 13.8 10.6 0.8 41 5.5 W 7 15 4 8 1021.5 1021.5 0.0
28/07:30am 12.2 8.9 0.0 43 5.0 WNW 7 15 4 8 1021.2 1021.2 0.0
28/07:00am 11.1 7.0 -0.4 45 4.6 WNW 11 20 6 11 1021.1 1021.1 0.0
28/06:30am 10.3 6.5 -0.5 47 4.3 W 9 17 5 9 1020.5 1020.5 0.0
28/06:00am 10.2 6.1 -0.3 48 4.2 W 11 20 6 11 1020.1 1020.1 0.0
28/05:30am 10.2 6.5 -0.3 48 4.2 W 9 19 5 10 1019.7 1019.7 0.0
28/05:00am 10.1 6.3 -0.4 48 4.2 WNW 9 17 5 9 1019.0 1019.0 0.0
28/04:30am 9.8 5.4 0.2 51 3.9 WNW 13 20 7 11 1019.2 1019.2 0.0
28/04:00am 10.2 5.7 -0.3 48 4.2 WNW 13 20 7 11 1018.8 1018.8 0.0
28/03:30am 10.6 5.7 -0.2 47 4.4 NW 15 26 8 14 1018.6 1018.6 0.0
28/03:00am 10.6 6.2 0.3 49 4.2 WNW 13 26 7 14 1018.6 1018.6 0.0
28/02:30am 11.1 5.9 0.2 47 4.5 WNW 17 32 9 17 1018.7 1018.7 0.0
28/02:00am 10.9 6.1 0.3 48 4.3 WNW 15 26 8 14 1018.7 1018.7 0.0
28/01:30am 11.0 5.5 0.7 49 4.3 WNW 19 39 10 21 1018.6 1018.6 0.0
28/01:00am 11.1 5.3 0.2 47 4.4 WNW 20 37 11 20 1018.7 1018.7 0.0
28/12:30am 11.3 5.8 0.4 47 4.5 WNW 19 37 10 20 1019.0 1019.0 0.0
28/12:00am 11.0 5.9 1.0 50 4.1 WNW 17 28 9 15 1019.2 1019.2 0.0
 
Date/Time
EST
Temp
°C
App
Temp
°C
Dew
Point
°C
Rel
Hum
%
Delta-T
°C
Wind Press
QNH
hPa
Press
MSL
hPa
Rain since
9am
mm
Dir  Spd
km/h
Gust
km/h
Spd
kts
Gust
kts
27/11:30pm 11.1 6.4 0.8 49 4.3 WNW 15 24 8 13 1019.6 1019.6 0.0
27/11:00pm 11.3 7.0 0.7 48 4.4 WNW 13 24 7 13 1019.8 1019.8 0.0
27/10:30pm 11.4 6.4 1.4 50 4.2 WNW 17 28 9 15 1019.9 1019.9 0.0
27/10:00pm 11.2 7.0 1.5 51 4.1 WNW 13 20 7 11 1020.0 1020.0 0.0
27/09:30pm 11.7 7.5 1.4 49 4.4 NW 13 22 7 12 1019.9 1019.9 0.0
27/09:00pm 12.0 7.1 1.9 50 4.3 WNW 17 28 9 15 1019.8 1019.8 0.0
27/08:30pm 11.7 8.0 2.5 53 4.0 WNW 11 19 6 10 1019.8 1019.8 0.0
27/08:00pm 11.7 9.8 2.7 54 3.9 NW 2 9 1 5 1019.9 1019.9 0.0
27/07:30pm 12.1 9.8 2.8 53 4.1 NW 4 7 2 4 1019.5 1019.5 0.0
27/07:00pm 13.0 10.4 3.1 51 4.4 NW 6 9 3 5 1019.5 1019.5 0.0
27/06:30pm 13.1 10.4 2.9 50 4.5 NW 6 9 3 5 1019.4 1019.4 0.0
27/06:00pm 13.7 11.0 2.9 48 4.8 NW 6 9 3 5 1019.1 1019.1 0.0
27/05:30pm 15.2 11.6 3.0 44 5.5 NW 11 17 6 9 1018.8 1018.8 0.0
27/05:00pm 16.4 12.3 2.4 39 6.3 NNW 13 19 7 10 1018.5 1018.5 0.0
27/04:30pm 17.3 12.9 2.9 38 6.6 NNW 15 24 8 13 1018.4 1018.4 0.0
27/04:00pm 17.8 13.4 2.5 36 7.0 NNW 15 24 8 13 1018.3 1018.3 0.0
27/03:30pm 18.3 14.0 1.3 32 7.6 NNW 13 20 7 11 1018.1 1018.1 0.0
27/03:00pm 18.8 15.7 1.3 31 7.8 WNW 7 17 4 9 1018.5 1018.5 0.0
27/02:30pm 17.4 13.8 3.0 38 6.6 NE 11 19 6 10 1018.9 1018.9 0.0
27/02:00pm 16.5 12.3 3.9 43 5.8 NE 15 20 8 11 1019.1 1019.1 0.0
27/01:30pm 16.3 12.1 4.0 44 5.7 NNE 15 20 8 11 1019.5 1019.5 0.0
27/01:00pm 16.4 13.5 4.8 46 5.5 NE 9 17 5 9 1019.9 1019.9 0.0
27/12:30pm 15.4 12.9 6.4 55 4.4 ENE 9 17 5 9 1020.4 1020.4 0.0
27/12:00pm 15.8 14.0 7.8 59 4.0 NE 7 13 4 7 1021.0 1021.0 0.0
27/11:30am 15.1 12.5 5.9 54 4.4 NE 9 13 5 7 1021.7 1021.7 0.0
27/11:00am 14.3 11.9 5.1 54 4.3 NNE 7 11 4 6 1022.1 1022.1 0.0
27/10:30am 14.6 12.5 5.7 55 4.2 ENE 6 9 3 5 1022.4 1022.4 0.0
27/10:00am 14.2 12.9 6.1 58 3.9 WSW 2 6 1 3 1022.5 1022.5 0.0
27/09:30am 13.2 11.6 6.3 63 3.3 WSW 4 6 2 3 1022.5 1022.5 0.0
27/09:00am 13.0 11.3 3.9 54 4.1 W 2 4 1 2 1022.5 1022.5 0.0
27/08:30am 11.7 10.4 4.0 59 3.5 CALM 0 2 0 1 1022.2 1022.2 0.0
27/08:00am 10.4 9.0 3.4 62 3.0 CALM 0 2 0 1 1022.1 1022.1 0.0
27/07:30am 8.9 6.8 3.9 71 2.2 W 4 6 2 3 1021.9 1021.9 0.0
27/07:00am 6.6 4.3 3.0 78 1.5 W 4 4 2 2 1021.7 1021.7 0.0
27/06:30am 6.3 4.7 2.6 77 1.5 CALM 0 2 0 1 1021.7 1021.7 0.0
27/06:00am 6.9 5.4 2.8 75 1.7 CALM 0 0 0 0 1021.5 1021.5 0.0
27/05:30am 7.3 5.7 2.4 71 2.0 CALM 0 6 0 3 1021.5 1021.5 0.0
27/05:00am 8.7 6.5 3.5 70 2.2 ESE 4 7 2 4 1021.4 1021.4 0.0
27/04:30am 8.3 4.7 2.8 68 2.3 WSW 11 19 6 10 1021.1 1021.1 0.0
27/04:00am 8.9 6.0 2.7 65 2.6 WSW 7 13 4 7 1020.8 1020.8 0.0
27/03:30am 9.0 5.8 3.0 66 2.6 WSW 9 15 5 8 1020.7 1020.7 0.0
27/03:00am 8.9 6.1 2.9 66 2.5 W 7 11 4 6 1020.8 1020.8 0.0
27/02:30am 9.1 6.3 3.1 66 2.6 W 7 11 4 6 1020.9 1020.9 0.0
27/02:00am 9.6 6.8 3.1 64 2.8 W 7 9 4 5 1021.1 1021.1 0.0
27/01:30am 9.7 6.9 3.2 64 2.8 WSW 7 11 4 6 1021.1 1021.1 0.0
27/01:00am 10.3 7.6 3.6 63 2.9 W 7 11 4 6 1021.2 1021.2 0.0
27/12:30am 10.1 7.4 3.6 64 2.8 WNW 7 9 4 5 1021.2 1021.2 0.0
27/12:00am 10.3 7.6 3.8 64 2.9 WNW 7 11 4 6 1021.3 1021.3 0.0
 
Date/Time
EST
Temp
°C
App
Temp
°C
Dew
Point
°C
Rel
Hum
%
Delta-T
°C
Wind Press
QNH
hPa
Press
MSL
hPa
Rain since
9am
mm
Dir  Spd
km/h
Gust
km/h
Spd
kts
Gust
kts
26/11:30pm 10.2 7.5 3.9 65 2.8 NW 7 9 4 5 1021.3 1021.3 0.0
26/11:00pm 10.5 7.9 4.2 65 2.8 WNW 7 9 4 5 1021.4 1021.4 0.0
26/10:30pm 10.4 7.8 4.3 66 2.7 WNW 7 9 4 5 1021.2 1021.2 0.0
26/10:00pm 10.4 7.9 4.8 68 2.5 W 7 9 4 5 1021.1 1021.1 0.0
26/09:30pm 10.2 7.6 4.4 67 2.6 W 7 9 4 5 1021.0 1021.0 0.0
26/09:00pm 10.4 7.8 4.3 66 2.7 W 7 9 4 5 1020.8 1020.8 0.0
26/08:30pm 10.2 7.8 4.1 66 2.7 W 6 7 3 4 1020.5 1020.5 0.0
26/08:00pm 10.7 8.3 4.2 64 2.9 W 6 9 3 5 1020.3 1020.3 0.0
26/07:30pm 10.7 8.2 4.6 66 2.7 WSW 7 9 4 5 1020.3 1020.3 0.0
26/07:00pm 10.1 7.7 4.5 68 2.5 SW 6 7 3 4 1020.1 1020.1 0.0
26/06:30pm 10.7 8.3 4.4 65 2.8 SSW 6 6 3 3 1019.8 1019.8 0.0
26/06:00pm 11.8 9.8 4.3 60 3.4 SSW 4 7 2 4 1019.5 1019.5 0.0
26/05:30pm 12.6 11.1 4.8 59 3.6 SE 2 9 1 5 1019.1 1019.1 0.0
26/05:00pm 13.4 10.7 3.8 52 4.3 S 7 13 4 7 1018.9 1018.9 0.0
26/04:30pm 13.9 10.7 5.0 55 4.2 S 11 19 6 10 1018.9 1018.9 0.0
26/04:00pm 14.1 10.2 5.2 55 4.2 SSE 15 22 8 12 1018.6 1018.6 0.0
26/03:30pm 14.2 9.8 4.8 53 4.4 S 17 20 9 11 1018.5 1018.5 0.0
26/03:00pm 14.6 10.4 5.7 55 4.2 S 17 26 9 14 1018.4 1018.4 0.0
26/02:30pm 14.4 9.6 4.4 51 4.6 S 19 26 10 14 1018.2 1018.2 0.0
26/02:00pm 14.7 10.2 4.1 49 4.9 S 17 24 9 13 1018.3 1018.3 0.0
26/01:30pm 14.1 9.3 4.7 53 4.4 S 19 24 10 13 1018.4 1018.4 0.0
26/01:00pm 13.9 7.9 3.1 48 4.8 S 24 30 13 16 1018.5 1018.5 0.0
26/12:30pm 14.4 8.6 4.4 51 4.6 S 24 32 13 17 1018.6 1018.6 0.0
26/12:00pm 14.1 8.2 4.1 51 4.6 S 24 32 13 17 1018.8 1018.8 0.0
26/11:30am 13.9 8.3 3.7 50 4.6 S 22 30 12 16 1019.1 1019.1 0.0
26/11:00am 14.0 9.4 3.8 50 4.6 SSW 17 26 9 14 1019.5 1019.5 0.0
26/10:30am 13.3 8.5 2.8 49 4.6 SSW 17 30 9 16 1019.6 1019.6 0.0
26/10:00am 13.1 7.9 2.4 48 4.7 SSW 19 28 10 15 1019.3 1019.3 0.0
26/09:30am 12.7 7.8 2.3 49 4.5 SSW 17 30 9 16 1019.3 1019.3 0.0
26/09:00am 11.9 8.2 2.1 51 4.2 SW 11 20 6 11 1019.4 1019.4 8.0

Other Formats:

Comma delimited format used in spreadsheet applications
http://www.bom.gov.au/fwo/IDN60801/IDN60801.94938.axf

JavaScript Object Notation format (JSON) in row-major order
http://www.bom.gov.au/fwo/IDN60801/IDN60801.94938.json